Auburn Township, OH

8:58 PM EDT on May 22, 2015 (GMT -0400)
Burke Lakefront | | Change Station
CLOSE
Current Station
Airport
Location: Cleveland Burke,
Elevation: 584 ft
Nearby Weather Stations
Active Advisory: Frost Advisory

Elev 584 ft 41.52 °N, 81.68 °W | Updated 5 minutes ago

Clear
Clear
56 °F
Feels Like 56 °F
N
8
Wind Variable Wind from East

Today
High -- | Low -- °F
--% Chance of Precip.
Yesterday
High -- | Low -- °F
Precip. -- in
6:00 AM 8:43 PM
Waxing Crescent, 25% visible
Pressure 30.27 in
Visibility 10.0 miles
Clouds Clear
Dew Point 27 °F
Humidity 33%
Rainfall 0.03 in
Snow Depth Not available.
UV 0 out of 12
Pollen 8.00 out of 12
Air Quality Not available.
Flu Activity Local Activity
METAR KBKL 230053Z 08007KT 10SM CLR 13/M03 A3026 RMK AO2 SLP248 T01331028

More Conditions Fewer Conditions

Pressure 30.27 in
Visibility 10.0 miles
Clouds Clear
Dew Point 27 °F
Humidity 33%
Rainfall 0.03 in
Snow Depth Not available.
UV 0 out of 12
Pollen 8.00 out of 12
Air Quality Not available.
Flu Activity Local Activity
METAR KBKL 230053Z 08007KT 10SM CLR 13/M03 A3026 RMK AO2 SLP248 T01331028

More Conditions Fewer Conditions

10-Day Weather Forecast

Almanac

Astronomy

May. 22, 2015 Rise Set
Actual Time
Civil Twilight
Nautical Twilight
Astronomical Twilight
Moon
Length of Visible Light
Length of Day
Tomorrow will be .
, % of the Moon is Illuminated

Today's Extremes

State Highs State Lows

Community

WunderPhotos

Upload Photos

1,823,350 photos uploaded!

WunderBlogs® & News

Nearby

Air Quality

  Air Quality AQ Index Pollutant
Not available.

Snow Depth

Station Depth Elevation

Earthquake Activity

City Distance Mag. Time & Date
Minimum magnitude displayed is 2.5.

Coastal Water Temperatures

Place Temperature

Stations

Nearby Weather Stations

Station Location Temp. Windchill Dew Point Humidity Wind Precip. Elev Updated Type
                   
Frost Advisory
Statement as of 11:16 AM EDT on May 22, 2015

... Frost advisory remains in effect from midnight tonight to 9 am
EDT Saturday...

* temperatures... low temperatures in the lower and mid 30s.
Temperatures will be warmest near the Lakeshore.

* Timing... the lowest temperatures will occur around sunrise
Saturday morning.

* Impacts... frost will result in damage to unprotected tender
vegetation.

Precautionary/preparedness actions...

A frost advisory is issued when frost is expected to develop
during the growing season. Those with agricultural interests in
the warned area are advised to protect tender vegetation. Potted
plants that are outdoors should be covered or brought inside to
protect from the cold.